createdAt,value
2022-08-04T00:01:26.900Z,99349.59
2022-08-04T00:04:29.502Z,99350.53
2022-08-04T00:07:08.652Z,99351.19
2022-08-04T00:10:05.880Z,99361.84
2022-08-04T00:12:39.703Z,99358.16
2022-08-04T00:15:15.556Z,99352.59
2022-08-04T00:17:56.139Z,99354.84
2022-08-04T00:20:25.179Z,99341.31
2022-08-04T00:22:52.939Z,99355.84
2022-08-04T00:25:21.102Z,99350.91
2022-08-04T00:27:49.370Z,99350.59
2022-08-04T00:30:17.136Z,99354.63
2022-08-04T00:32:45.087Z,99349.91
2022-08-04T00:35:16.570Z,99356.72
2022-08-04T00:37:45.550Z,99349.31
2022-08-04T00:40:31.920Z,99358.19
2022-08-04T00:43:05.501Z,99356.97
2022-08-04T00:46:16.091Z,99362.06
2022-08-04T00:48:54.961Z,99360.00
2022-08-04T00:52:32.893Z,99367.41
2022-08-04T00:55:13.370Z,99365.62
2022-08-04T00:58:25.810Z,99363.00
2022-08-04T01:00:59.866Z,99365.94
2022-08-04T01:03:43.222Z,99370.28
2022-08-04T01:06:36.292Z,99360.19
2022-08-04T01:09:45.519Z,99369.94
2022-08-04T01:12:53.533Z,99369.72
2022-08-04T01:15:21.642Z,99365.94
2022-08-04T01:18:09.608Z,99368.22
2022-08-04T01:21:19.219Z,99370.13
2022-08-04T01:24:10.319Z,99367.47
2022-08-04T01:26:57.886Z,99364.06
2022-08-04T01:29:43.943Z,99370.38
2022-08-04T01:32:38.245Z,99368.31
2022-08-04T01:35:21.537Z,99366.41
2022-08-04T01:37:59.181Z,99364.59
2022-08-04T01:40:27.509Z,99369.31
2022-08-04T01:42:56.039Z,99369.28
2022-08-04T01:45:24.970Z,99366.91
2022-08-04T01:47:54.582Z,99369.28
2022-08-04T01:50:23.678Z,99368.59
2022-08-04T01:52:54.320Z,99377.03
2022-08-04T01:55:23.511Z,99374.06
2022-08-04T01:57:53.001Z,99365.41
2022-08-04T02:00:27.050Z,99358.88
2022-08-04T02:02:56.704Z,99359.34
2022-08-04T02:05:26.409Z,99368.25
2022-08-04T02:08:44.270Z,99366.50
2022-08-04T02:11:22.561Z,99361.59
2022-08-04T02:14:12.759Z,99362.72
2022-08-04T02:16:52.709Z,99365.97
2022-08-04T02:19:30.771Z,99363.31
2022-08-04T02:22:08.970Z,99357.16
2022-08-04T02:24:46.582Z,99357.69
2022-08-04T02:27:15.279Z,99352.84
2022-08-04T02:29:52.140Z,99358.28
2022-08-04T02:32:27.650Z,99362.19
2022-08-04T02:35:06.820Z,99355.72
2022-08-04T02:37:35.619Z,99353.22
2022-08-04T02:40:07.053Z,99352.16
2022-08-04T02:42:35.371Z,99348.00
2022-08-04T02:45:04.138Z,99354.34
2022-08-04T02:48:29.478Z,99360.34
2022-08-04T02:50:28.395Z,99356.00
2022-08-04T02:53:01.392Z,99355.50
2022-08-04T02:55:30.241Z,99351.63
2022-08-04T02:58:03.372Z,99352.56
2022-08-04T03:00:32.230Z,99349.59
2022-08-04T03:03:22.691Z,99354.03
2022-08-04T03:06:12.350Z,99349.53
2022-08-04T03:08:43.120Z,99348.75
2022-08-04T03:11:34.029Z,99346.50
2022-08-04T03:14:20.552Z,99356.97
2022-08-04T03:17:25.669Z,99355.88
2022-08-04T03:20:15.261Z,99353.75
2022-08-04T03:23:12.074Z,99354.97
2022-08-04T03:26:24.368Z,99350.75
2022-08-04T03:29:12.887Z,99351.34
2022-08-04T03:32:18.311Z,99354.22
2022-08-04T03:35:04.529Z,99359.28
2022-08-04T03:38:02.918Z,99359.44
2022-08-04T03:40:42.751Z,99357.62
2022-08-04T03:43:58.242Z,99361.19
2022-08-04T03:46:30.838Z,99366.19
2022-08-04T03:49:17.579Z,99363.78
2022-08-04T03:52:28.933Z,99368.16
2022-08-04T03:55:33.019Z,99367.87
2022-08-04T03:58:38.699Z,99360.28
2022-08-04T04:01:24.999Z,99371.69
2022-08-04T04:04:11.788Z,99371.19
2022-08-04T04:06:52.896Z,99375.41
2022-08-04T04:09:56.787Z,99370.41
2022-08-04T04:12:49.964Z,99377.31
2022-08-04T04:15:30.399Z,99375.25
2022-08-04T04:18:29.450Z,99377.66
2022-08-04T04:21:22.142Z,99370.81
2022-08-04T04:24:18.100Z,99369.84
2022-08-04T04:26:57.602Z,99371.41
2022-08-04T04:29:47.390Z,99377.09
2022-08-04T04:32:36.671Z,99372.53
2022-08-04T04:35:29.859Z,99377.09
2022-08-04T04:38:16.079Z,99372.34
2022-08-04T04:41:10.700Z,99385.66
2022-08-04T04:44:06.129Z,99392.13
2022-08-04T04:46:54.972Z,99390.47
2022-08-04T04:49:35.399Z,99391.87
2022-08-04T04:52:09.241Z,99382.44
2022-08-04T04:55:00.839Z,99394.84
2022-08-04T04:57:54.109Z,99391.94
2022-08-04T05:00:20.661Z,99402.81
2022-08-04T05:03:28.068Z,99391.63
2022-08-04T05:06:34.652Z,99389.47
2022-08-04T05:09:37.000Z,99395.00
2022-08-04T05:14:32.560Z,99401.94
2022-08-04T05:15:26.398Z,99398.22
2022-08-04T05:17:55.911Z,99401.09
2022-08-04T05:20:31.328Z,99400.88
2022-08-04T05:23:09.178Z,99400.72
2022-08-04T05:25:59.543Z,99407.34
2022-08-04T05:28:34.331Z,99407.34
2022-08-04T05:31:20.741Z,99411.12
2022-08-04T05:34:03.322Z,99409.91
2022-08-04T05:36:41.391Z,99412.97
2022-08-04T05:39:18.036Z,99411.44
2022-08-04T05:41:55.102Z,99411.59
2022-08-04T05:44:25.509Z,99412.59
2022-08-04T05:46:56.865Z,99415.34
2022-08-04T05:49:26.658Z,99419.59
2022-08-04T05:51:56.879Z,99424.06
2022-08-04T05:54:25.399Z,99421.22
2022-08-04T05:56:54.139Z,99425.78
2022-08-04T05:59:25.801Z,99425.91
2022-08-04T06:01:57.631Z,99428.81
2022-08-04T06:04:47.720Z,99432.16
2022-08-04T06:07:15.689Z,99430.59
2022-08-04T06:09:44.031Z,99417.00
2022-08-04T06:12:16.152Z,99423.66
2022-08-04T06:14:46.311Z,99437.84
2022-08-04T06:18:32.162Z,99424.81
2022-08-04T06:20:19.244Z,99423.31
2022-08-04T06:22:53.139Z,99424.03
2022-08-04T06:25:25.411Z,99429.47
2022-08-04T06:27:53.679Z,99425.66
2022-08-04T06:30:26.412Z,99427.59
2022-08-04T06:33:03.847Z,99418.75
2022-08-04T06:35:34.088Z,99423.38
2022-08-04T06:38:03.260Z,99432.13
2022-08-04T06:40:34.403Z,99428.03
2022-08-04T06:43:04.852Z,99426.03
2022-08-04T06:45:35.027Z,99422.16
2022-08-04T06:48:05.809Z,99425.84
2022-08-04T06:51:28.203Z,99413.53
2022-08-04T06:53:26.475Z,99425.97
2022-08-04T06:55:55.056Z,99421.56
2022-08-04T06:58:23.471Z,99416.53
2022-08-04T07:00:52.284Z,99426.59
2022-08-04T07:03:21.943Z,99425.28
2022-08-04T07:05:51.586Z,99421.66
2022-08-04T07:08:20.964Z,99423.16
2022-08-04T07:10:49.137Z,99427.63
2022-08-04T07:13:18.166Z,99428.53
2022-08-04T07:15:47.289Z,99431.81
2022-08-04T07:18:15.167Z,99425.72
2022-08-04T07:20:44.638Z,99431.88
2022-08-04T07:23:18.027Z,99433.66
2022-08-04T07:26:01.125Z,99423.09
2022-08-04T07:28:42.345Z,99422.53
2022-08-04T07:31:33.196Z,99425.81
2022-08-04T07:34:17.414Z,99421.91
2022-08-04T07:36:55.690Z,99426.59
2022-08-04T07:39:28.133Z,99418.81
2022-08-04T07:42:02.549Z,99422.56
2022-08-04T07:44:35.730Z,99423.50
2022-08-04T07:47:06.200Z,99416.69
2022-08-04T07:49:54.351Z,99414.63
2022-08-04T07:52:23.268Z,99411.38
2022-08-04T07:54:51.918Z,99413.25
2022-08-04T07:57:39.815Z,99413.59
2022-08-04T08:00:10.733Z,99405.59
2022-08-04T08:02:39.628Z,99407.94
2022-08-04T08:05:10.720Z,99398.75
2022-08-04T08:07:50.706Z,99410.44
2022-08-04T08:10:24.119Z,99402.91
2022-08-04T08:12:53.270Z,99404.09
2022-08-04T08:15:22.067Z,99409.06
2022-08-04T08:17:58.861Z,99408.28
2022-08-04T08:20:32.718Z,99417.44
2022-08-04T08:23:02.266Z,99404.94
2022-08-04T08:25:33.906Z,99395.47
2022-08-04T08:28:04.759Z,99398.56
2022-08-04T08:30:36.278Z,99398.91
2022-08-04T08:33:10.239Z,99404.06
2022-08-04T08:36:02.820Z,99403.22
2022-08-04T08:38:47.999Z,99403.62
2022-08-04T08:41:21.569Z,99412.16
2022-08-04T08:44:05.944Z,99409.75
2022-08-04T08:46:49.270Z,99405.66
2022-08-04T08:50:02.515Z,99406.34
2022-08-04T08:52:57.499Z,99406.47
2022-08-04T08:55:54.230Z,99408.47
2022-08-04T08:58:55.506Z,99396.94
2022-08-04T09:01:44.928Z,99403.56
2022-08-04T09:04:54.671Z,99404.44
2022-08-04T09:07:49.460Z,99404.41
2022-08-04T09:10:42.702Z,99408.56
2022-08-04T09:13:30.890Z,99410.81
2022-08-04T09:16:04.469Z,99400.44
2022-08-04T09:18:43.471Z,99406.69
2022-08-04T09:21:34.350Z,99412.72
2022-08-04T09:24:35.078Z,99407.47
2022-08-04T09:27:16.566Z,99413.03
2022-08-04T09:29:48.870Z,99399.25
2022-08-04T09:32:29.399Z,99399.66
2022-08-04T09:35:08.587Z,99407.88
2022-08-04T09:37:45.850Z,99406.25
2022-08-04T09:40:31.142Z,99401.88
2022-08-04T09:44:42.100Z,99408.91
2022-08-04T09:46:34.385Z,99398.06
2022-08-04T09:49:14.990Z,99396.75
2022-08-04T09:51:57.690Z,99388.66
2022-08-04T09:55:01.096Z,99379.00
2022-08-04T09:57:42.292Z,99390.56
2022-08-04T10:00:13.849Z,99378.66
2022-08-04T10:02:45.271Z,99379.56
2022-08-04T10:05:23.751Z,99379.53
2022-08-04T10:08:16.198Z,99376.84
2022-08-04T10:11:00.550Z,99369.19
2022-08-04T10:13:31.454Z,99372.22
2022-08-04T10:16:33.370Z,99370.44
2022-08-04T10:19:23.559Z,99374.38
2022-08-04T10:22:28.129Z,99366.47
2022-08-04T10:25:37.444Z,99367.19
2022-08-04T10:28:14.297Z,99361.06
2022-08-04T10:30:52.557Z,99371.94
2022-08-04T10:33:33.751Z,99369.06
2022-08-04T10:36:05.110Z,99363.03
2022-08-04T10:39:04.470Z,99362.50
2022-08-04T10:41:56.144Z,99354.06
2022-08-04T10:44:57.730Z,99347.19
2022-08-04T10:47:32.602Z,99346.66
2022-08-04T10:50:02.372Z,99343.72
2022-08-04T10:52:34.652Z,99347.31
2022-08-04T10:56:07.921Z,99338.44
2022-08-04T10:58:20.570Z,99338.47
2022-08-04T11:00:49.639Z,99333.34
2022-08-04T11:03:25.194Z,99327.75
2022-08-04T11:05:56.179Z,99323.78
2022-08-04T11:08:45.773Z,99322.91
2022-08-04T11:12:00.494Z,99323.09
2022-08-04T11:14:33.793Z,99314.81
2022-08-04T11:17:05.820Z,99323.00
2022-08-04T11:19:44.720Z,99320.91
2022-08-04T11:22:26.311Z,99323.56
2022-08-04T11:25:14.584Z,99317.59
2022-08-04T11:27:56.877Z,99325.09
2022-08-04T11:30:25.859Z,99313.13
2022-08-04T11:33:18.147Z,99315.37
2022-08-04T11:36:17.257Z,99317.25
2022-08-04T11:39:33.922Z,99302.31
2022-08-04T11:42:16.662Z,99308.69
2022-08-04T11:44:56.519Z,99313.41
2022-08-04T11:47:24.854Z,99311.03
2022-08-04T11:50:10.460Z,99296.97
2022-08-04T11:52:41.393Z,99302.13
2022-08-04T11:55:11.610Z,99297.09
2022-08-04T11:57:40.312Z,99289.84
2022-08-04T12:00:10.822Z,99281.72
2022-08-04T12:03:10.200Z,99287.50
2022-08-04T12:05:53.406Z,99288.62
2022-08-04T12:08:56.641Z,99277.09
2022-08-04T12:11:40.041Z,99285.28
2022-08-04T12:14:21.046Z,99277.09
2022-08-04T12:16:55.488Z,99272.25
2022-08-04T12:19:38.631Z,99270.50
2022-08-04T12:22:22.750Z,99253.31
2022-08-04T12:25:08.632Z,99262.94
2022-08-04T12:27:48.782Z,99266.50
2022-08-04T12:30:57.310Z,99266.53
2022-08-04T12:34:03.261Z,99259.63
2022-08-04T12:36:56.651Z,99257.88
2022-08-04T12:39:26.484Z,99248.53
2022-08-04T12:42:05.096Z,99255.69
2022-08-04T12:44:39.063Z,99255.31
2022-08-04T12:47:26.805Z,99250.62
2022-08-04T12:50:04.011Z,99248.59
2022-08-04T12:55:32.044Z,99244.28
2022-08-04T12:58:02.374Z,99245.31
2022-08-04T13:00:40.742Z,99245.78
2022-08-04T13:03:12.997Z,99253.66
2022-08-04T13:05:42.079Z,99253.66
2022-08-04T13:08:11.956Z,99250.78
2022-08-04T13:10:47.825Z,99240.09
2022-08-04T13:13:21.580Z,99232.88
2022-08-04T13:15:59.899Z,99232.94
2022-08-04T13:18:32.334Z,99231.22
2022-08-04T13:21:22.829Z,99224.22
2022-08-04T13:24:10.841Z,99219.72
2022-08-04T13:27:03.772Z,99223.81
2022-08-04T13:29:59.695Z,99216.91
2022-08-04T13:32:28.050Z,99220.19
2022-08-04T13:34:56.933Z,99219.47
2022-08-04T13:37:35.445Z,99214.06
2022-08-04T13:40:10.157Z,99203.78
2022-08-04T13:42:39.000Z,99207.16
2022-08-04T13:45:09.110Z,99205.22
2022-08-04T13:47:38.814Z,99211.81
2022-08-04T13:50:27.472Z,99202.47
2022-08-04T13:53:00.142Z,99196.97
2022-08-04T13:55:36.905Z,99197.62
2022-08-04T13:58:10.270Z,99189.00
2022-08-04T14:00:42.660Z,99189.53
2022-08-04T14:03:19.095Z,99195.56
2022-08-04T14:06:08.391Z,99183.13
2022-08-04T14:08:46.143Z,99191.75
2022-08-04T14:12:06.015Z,99188.16
2022-08-04T14:14:17.353Z,99183.13
2022-08-04T14:17:01.921Z,99177.06
2022-08-04T14:19:50.781Z,99175.09
2022-08-04T14:22:27.952Z,99170.69
2022-08-04T14:25:04.631Z,99175.78
2022-08-04T14:27:56.350Z,99164.59
2022-08-04T14:30:31.759Z,99169.38
2022-08-04T14:34:01.462Z,99167.09
2022-08-04T14:35:59.198Z,99160.50
2022-08-04T14:38:49.140Z,99160.50
2022-08-04T14:41:20.288Z,99154.34
2022-08-04T14:43:51.358Z,99169.19
2022-08-04T14:46:20.303Z,99157.25
2022-08-04T14:49:10.863Z,99161.66
2022-08-04T14:51:46.948Z,99167.00
2022-08-04T14:54:18.386Z,99160.38
2022-08-04T14:56:58.140Z,99156.75
2022-08-04T14:59:26.625Z,99163.81
2022-08-04T15:02:01.202Z,99154.13
2022-08-04T15:04:31.617Z,99158.22
2022-08-04T15:07:04.472Z,99159.16
2022-08-04T15:09:34.230Z,99159.22
2022-08-04T15:12:04.534Z,99146.63
2022-08-04T15:14:36.914Z,99156.16
2022-08-04T15:17:12.498Z,99154.56
2022-08-04T15:19:56.691Z,99151.88
2022-08-04T15:22:25.035Z,99148.31
2022-08-04T15:24:55.597Z,99145.56
2022-08-04T15:27:30.497Z,99153.88
2022-08-04T15:30:02.700Z,99152.41
2022-08-04T15:32:37.670Z,99147.87
2022-08-04T15:35:09.885Z,99141.78
2022-08-04T15:38:02.742Z,99143.81
2022-08-04T15:40:36.766Z,99146.56
2022-08-04T15:43:23.270Z,99134.97
2022-08-04T15:46:37.252Z,99142.47
2022-08-04T15:48:46.359Z,99142.44
2022-08-04T15:51:31.946Z,99141.59
2022-08-04T15:54:02.436Z,99136.03
2022-08-04T15:56:31.808Z,99132.75
2022-08-04T15:58:59.676Z,99134.78
2022-08-04T16:01:28.209Z,99130.88
2022-08-04T16:03:59.882Z,99124.31
2022-08-04T16:06:30.460Z,99130.47
2022-08-04T16:09:03.632Z,99125.22
2022-08-04T16:11:37.000Z,99126.75
2022-08-04T16:14:06.722Z,99127.78
2022-08-04T16:16:37.252Z,99122.19
2022-08-04T16:19:16.869Z,99125.50
2022-08-04T16:21:49.923Z,99115.78
2022-08-04T16:24:22.132Z,99120.03
2022-08-04T16:26:54.850Z,99121.97
2022-08-04T16:29:26.556Z,99124.75
2022-08-04T16:32:10.839Z,99119.38
2022-08-04T16:34:55.468Z,99119.47
2022-08-04T16:37:31.203Z,99123.75
2022-08-04T16:40:33.696Z,99119.50
2022-08-04T16:43:22.923Z,99116.03
2022-08-04T16:45:59.686Z,99108.75
2022-08-04T16:48:35.546Z,99110.56
2022-08-04T16:51:15.429Z,99107.97
2022-08-04T16:54:02.650Z,99108.87
2022-08-04T16:56:35.320Z,99109.31
2022-08-04T16:59:09.524Z,99112.34
2022-08-04T17:01:46.688Z,99108.31
2022-08-04T17:04:15.110Z,99113.22
2022-08-04T17:06:44.902Z,99115.97
2022-08-04T17:09:17.351Z,99116.47
2022-08-04T17:11:47.238Z,99120.50
2022-08-04T17:14:23.511Z,99109.06
2022-08-04T17:16:53.240Z,99111.75
2022-08-04T17:19:25.964Z,99121.38
2022-08-04T17:22:04.300Z,99120.78
2022-08-04T17:24:40.826Z,99116.75
2022-08-04T17:28:19.303Z,99113.59
2022-08-04T17:29:59.159Z,99117.13
2022-08-04T17:32:27.606Z,99116.81
2022-08-04T17:34:58.786Z,99120.81
2022-08-04T17:37:40.848Z,99120.03
2022-08-04T17:40:13.505Z,99120.16
2022-08-04T17:42:44.967Z,99124.87
2022-08-04T17:45:51.272Z,99121.84
2022-08-04T17:48:09.238Z,99120.19
2022-08-04T17:50:43.485Z,99130.22
2022-08-04T17:53:13.259Z,99119.72
2022-08-04T17:55:49.505Z,99123.78
2022-08-04T17:58:20.862Z,99124.69
2022-08-04T18:03:51.675Z,99120.12
2022-08-04T18:06:25.815Z,99119.78
2022-08-04T18:08:58.775Z,99120.25
2022-08-04T18:11:29.707Z,99123.06
2022-08-04T18:14:10.544Z,99117.31
2022-08-04T18:16:45.489Z,99115.00
2022-08-04T18:19:15.472Z,99118.56
2022-08-04T18:21:59.371Z,99119.59
2022-08-04T18:24:35.025Z,99122.34
2022-08-04T18:27:06.457Z,99120.62
2022-08-04T18:29:39.406Z,99126.22
2022-08-04T18:32:09.125Z,99131.44
2022-08-04T18:34:40.697Z,99132.13
2022-08-04T18:38:05.171Z,99138.22
2022-08-04T18:43:01.514Z,99138.47
2022-08-04T18:45:34.646Z,99143.44
2022-08-04T18:48:04.025Z,99148.03
2022-08-04T18:51:11.237Z,99153.69
2022-08-04T18:53:20.770Z,99142.41
2022-08-04T18:58:39.764Z,99152.38
2022-08-04T19:03:59.049Z,99153.09
2022-08-04T19:06:27.415Z,99149.25
2022-08-04T19:08:55.387Z,99153.03
2022-08-04T19:11:53.992Z,99156.66
2022-08-04T19:14:13.199Z,99159.78
2022-08-04T19:16:46.079Z,99154.66
2022-08-04T19:19:17.460Z,99163.81
2022-08-04T19:22:01.298Z,99158.69
2022-08-04T19:24:34.353Z,99162.22
2022-08-04T19:27:06.859Z,99170.69
2022-08-04T19:29:40.791Z,99159.25
2022-08-04T19:32:14.502Z,99167.81
2022-08-04T19:34:47.743Z,99167.88
2022-08-04T19:37:57.627Z,99166.81
2022-08-04T19:40:08.214Z,99175.44
2022-08-04T19:42:37.923Z,99167.31
2022-08-04T19:45:06.866Z,99180.69
2022-08-04T19:48:11.186Z,99170.25
2022-08-04T19:50:24.003Z,99177.72
2022-08-04T19:52:52.890Z,99169.63
2022-08-04T19:55:36.783Z,99176.56
2022-08-04T19:58:08.564Z,99173.09
2022-08-04T20:00:38.002Z,99175.94
2022-08-04T20:03:11.544Z,99178.81
2022-08-04T20:05:53.405Z,99169.66
2022-08-04T20:08:27.960Z,99181.16
2022-08-04T20:10:56.449Z,99177.84
2022-08-04T20:13:37.073Z,99185.28
2022-08-04T20:16:28.429Z,99184.16
2022-08-04T20:18:59.499Z,99177.75
2022-08-04T20:21:53.952Z,99189.47
2022-08-04T20:24:38.115Z,99179.13
2022-08-04T20:27:11.574Z,99183.47
2022-08-04T20:29:49.330Z,99189.72
2022-08-04T20:32:23.459Z,99188.88
2022-08-04T20:34:53.459Z,99190.84
2022-08-04T20:37:25.229Z,99188.13
2022-08-04T20:39:55.612Z,99194.56
2022-08-04T20:42:26.907Z,99191.97
2022-08-04T20:44:56.219Z,99200.19
2022-08-04T20:47:26.610Z,99197.34
2022-08-04T20:49:59.320Z,99205.75
2022-08-04T20:52:29.873Z,99205.06
2022-08-04T20:54:57.713Z,99196.22
2022-08-04T20:57:47.482Z,99196.75
2022-08-04T21:00:14.189Z,99201.53
2022-08-04T21:02:42.430Z,99190.72
2022-08-04T21:05:12.510Z,99197.50
2022-08-04T21:07:41.819Z,99198.88
2022-08-04T21:10:12.484Z,99207.25
2022-08-04T21:12:40.371Z,99202.13
2022-08-04T21:15:13.416Z,99197.09
2022-08-04T21:17:56.792Z,99204.03
2022-08-04T21:20:32.141Z,99202.88
2022-08-04T21:23:01.990Z,99206.13
2022-08-04T21:25:30.384Z,99208.69
2022-08-04T21:27:59.041Z,99209.72
2022-08-04T21:30:37.066Z,99208.78
2022-08-04T21:33:22.062Z,99210.06
2022-08-04T21:35:55.068Z,99210.31
2022-08-04T21:38:25.093Z,99216.25
2022-08-04T21:41:01.891Z,99213.69
2022-08-04T21:43:42.723Z,99213.63
2022-08-04T21:46:11.750Z,99209.28
2022-08-04T21:48:42.416Z,99210.56
2022-08-04T21:51:59.150Z,99216.78
2022-08-04T21:54:15.057Z,99222.25
2022-08-04T21:56:51.419Z,99220.44
2022-08-04T22:02:09.738Z,99227.25
2022-08-04T22:04:37.850Z,99226.72
2022-08-04T22:07:05.589Z,99215.63
2022-08-04T22:09:38.492Z,99225.56
2022-08-04T22:12:12.129Z,99228.19
2022-08-04T22:14:40.745Z,99224.75
2022-08-04T22:17:13.744Z,99234.25
2022-08-04T22:19:55.861Z,99235.50
2022-08-04T22:22:29.267Z,99237.78
2022-08-04T22:25:01.810Z,99226.13
2022-08-04T22:27:55.297Z,99235.22
2022-08-04T22:30:24.414Z,99241.97
2022-08-04T22:32:57.299Z,99244.38
2022-08-04T22:35:36.063Z,99240.03
2022-08-04T22:38:26.878Z,99243.81
2022-08-04T22:41:01.855Z,99242.09
2022-08-04T22:43:33.315Z,99245.66
2022-08-04T22:46:06.520Z,99248.69
2022-08-04T22:48:36.261Z,99244.22
2022-08-04T22:51:06.409Z,99242.72
2022-08-04T22:53:36.070Z,99239.59
2022-08-04T22:56:10.713Z,99243.25
2022-08-04T22:58:45.487Z,99245.63
2022-08-04T23:01:15.744Z,99237.28
2022-08-04T23:03:55.222Z,99236.34
2022-08-04T23:06:28.349Z,99228.56
2022-08-04T23:08:57.740Z,99234.56
2022-08-04T23:11:33.366Z,99233.31
2022-08-04T23:14:04.342Z,99230.94
2022-08-04T23:16:40.299Z,99230.34
2022-08-04T23:19:12.114Z,99227.91
2022-08-04T23:21:47.710Z,99222.22
2022-08-04T23:24:29.703Z,99225.63
2022-08-04T23:26:59.401Z,99222.78
2022-08-04T23:29:27.686Z,99232.34
2022-08-04T23:32:15.616Z,99228.19
2022-08-04T23:34:48.443Z,99226.19
2022-08-04T23:37:16.645Z,99226.34
2022-08-04T23:40:15.737Z,99227.62
2022-08-04T23:42:32.654Z,99229.41
2022-08-04T23:45:00.658Z,99221.03
2022-08-04T23:48:16.754Z,99221.41
2022-08-04T23:50:16.520Z,99222.50
2022-08-04T23:52:44.696Z,99222.94
2022-08-04T23:55:19.099Z,99215.53
2022-08-04T23:58:06.015Z,99216.22
